createdAt,value
2018-12-08T00:01:48.445Z,15.78
2018-12-08T00:04:17.110Z,15.25
2018-12-08T00:06:45.774Z,15.10
2018-12-08T00:09:14.493Z,14.37
2018-12-08T00:11:43.267Z,17.55
2018-12-08T00:14:11.957Z,16.23
2018-12-08T00:16:42.138Z,19.40
2018-12-08T00:19:10.838Z,20.95
2018-12-08T00:21:39.490Z,21.10
2018-12-08T00:24:08.210Z,16.75
2018-12-08T00:26:36.918Z,20.97
2018-12-08T00:29:05.578Z,19.60
2018-12-08T00:31:47.194Z,20.90
2018-12-08T00:34:15.963Z,15.88
2018-12-08T00:36:44.938Z,17.00
2018-12-08T00:39:13.654Z,21.10
2018-12-08T00:41:42.418Z,15.72
2018-12-08T00:44:11.115Z,18.10
2018-12-08T00:46:39.882Z,16.48
2018-12-08T00:49:08.574Z,14.95
2018-12-08T00:51:37.348Z,15.32
2018-12-08T00:54:06.963Z,12.53
2018-12-08T00:56:36.447Z,15.63
2018-12-08T00:59:05.230Z,20.95
2018-12-08T01:01:34.014Z,13.28
2018-12-08T01:04:03.590Z,15.47
2018-12-08T01:06:32.326Z,21.73
2018-12-08T01:09:01.035Z,13.05
2018-12-08T01:11:31.119Z,14.15
2018-12-08T01:13:59.854Z,15.55
2018-12-08T01:16:28.589Z,11.97
2018-12-08T01:18:57.246Z,16.45
2018-12-08T01:21:25.943Z,11.83
2018-12-08T01:23:54.631Z,15.30
2018-12-08T01:26:23.342Z,16.30
2018-12-08T01:28:52.055Z,14.45
2018-12-08T01:31:20.826Z,22.15
2018-12-08T01:33:49.495Z,19.20
2018-12-08T01:36:18.211Z,22.70
2018-12-08T01:38:47.001Z,16.35
2018-12-08T01:41:15.761Z,17.95
2018-12-08T01:43:44.502Z,11.88
2018-12-08T01:46:13.181Z,19.97
2018-12-08T01:48:41.831Z,23.80
2018-12-08T01:51:10.586Z,18.37
2018-12-08T01:53:39.234Z,21.50
2018-12-08T01:56:07.958Z,20.48
2018-12-08T01:58:36.662Z,18.98
2018-12-08T02:01:05.411Z,22.85
2018-12-08T02:03:34.046Z,16.42
2018-12-08T02:06:02.762Z,18.45
2018-12-08T02:08:31.491Z,14.80
2018-12-08T02:11:02.150Z,17.40
2018-12-08T02:13:30.789Z,13.55
2018-12-08T02:15:59.536Z,20.00
2018-12-08T02:18:28.242Z,15.58
2018-12-08T02:20:56.981Z,18.98
2018-12-08T02:23:25.757Z,15.77
2018-12-08T02:25:54.487Z,20.25
2018-12-08T02:28:23.213Z,22.67
2018-12-08T02:30:52.010Z,17.52
2018-12-08T02:33:20.715Z,20.43
2018-12-08T02:35:49.494Z,17.40
2018-12-08T02:38:18.225Z,19.55
2018-12-08T02:40:47.035Z,15.55
2018-12-08T02:43:15.720Z,18.77
2018-12-08T02:45:44.380Z,20.05
2018-12-08T02:48:13.148Z,17.98
2018-12-08T02:50:41.874Z,19.15
2018-12-08T02:53:10.589Z,13.00
2018-12-08T02:55:39.326Z,21.20
2018-12-08T02:58:08.078Z,18.62
2018-12-08T03:00:36.851Z,14.47
2018-12-08T03:03:05.610Z,15.65
2018-12-08T03:05:34.312Z,20.20
2018-12-08T03:08:02.989Z,15.95
2018-12-08T03:10:31.694Z,18.80
2018-12-08T03:13:00.387Z,18.82
2018-12-08T03:15:29.090Z,26.42
2018-12-08T03:17:57.721Z,20.80
2018-12-08T03:20:26.482Z,21.42
2018-12-08T03:22:55.203Z,26.15
2018-12-08T03:25:24.014Z,21.15
2018-12-08T03:27:52.766Z,17.30
2018-12-08T03:30:21.462Z,22.48
2018-12-08T03:32:50.220Z,20.15
2018-12-08T03:35:18.927Z,16.45
2018-12-08T03:37:47.638Z,22.05
2018-12-08T03:40:16.327Z,24.53
2018-12-08T03:42:45.114Z,21.00
2018-12-08T03:45:13.811Z,17.67
2018-12-08T03:47:42.572Z,20.77
2018-12-08T03:50:11.255Z,19.70
2018-12-08T03:52:39.987Z,28.12
2018-12-08T03:55:08.674Z,22.32
2018-12-08T03:57:37.372Z,21.35
2018-12-08T04:00:06.474Z,18.42
2018-12-08T04:02:36.251Z,18.32
2018-12-08T04:05:05.010Z,18.35
2018-12-08T04:07:34.457Z,21.20
2018-12-08T04:10:05.061Z,17.95
2018-12-08T04:12:33.802Z,22.47
2018-12-08T04:15:02.491Z,22.60
2018-12-08T04:17:31.234Z,17.60
2018-12-08T04:19:59.961Z,22.13
2018-12-08T04:22:28.740Z,15.08
2018-12-08T04:24:57.447Z,19.77
2018-12-08T04:27:26.222Z,27.60
2018-12-08T04:29:54.910Z,12.40
2018-12-08T04:32:23.690Z,24.92
2018-12-08T04:34:52.402Z,14.40
2018-12-08T04:37:21.099Z,21.33
2018-12-08T04:39:49.785Z,20.95
2018-12-08T04:42:18.636Z,21.75
2018-12-08T04:44:47.317Z,22.20
2018-12-08T04:47:16.099Z,19.30
2018-12-08T04:49:44.881Z,21.77
2018-12-08T04:52:13.687Z,17.00
2018-12-08T04:54:42.457Z,22.73
2018-12-08T04:57:11.168Z,18.90
2018-12-08T04:59:39.859Z,22.85
2018-12-08T05:02:08.563Z,16.95
2018-12-08T05:04:37.448Z,22.13
2018-12-08T05:07:06.177Z,15.55
2018-12-08T05:09:34.831Z,20.97
2018-12-08T05:12:03.646Z,14.78
2018-12-08T05:14:32.500Z,17.50
2018-12-08T05:17:01.275Z,22.25
2018-12-08T05:19:30.002Z,19.65
2018-12-08T05:21:58.726Z,13.50
2018-12-08T05:24:27.406Z,17.10
2018-12-08T05:26:56.098Z,20.82
2018-12-08T05:29:24.811Z,18.87
2018-12-08T05:31:53.522Z,24.98
2018-12-08T05:34:22.263Z,18.23
2018-12-08T05:36:50.957Z,21.40
2018-12-08T05:39:19.610Z,16.77
2018-12-08T05:41:48.352Z,18.15
2018-12-08T05:44:17.051Z,20.77
2018-12-08T05:46:45.770Z,16.80
2018-12-08T05:49:14.459Z,25.03
2018-12-08T05:51:43.114Z,17.80
2018-12-08T05:54:11.866Z,18.48
2018-12-08T05:56:40.530Z,25.88
2018-12-08T05:59:09.278Z,16.25
2018-12-08T06:01:37.988Z,15.32
2018-12-08T06:04:06.719Z,19.85
2018-12-08T06:06:35.415Z,19.05
2018-12-08T06:09:05.282Z,22.00
2018-12-08T06:11:35.030Z,16.90
2018-12-08T06:14:03.807Z,19.95
2018-12-08T06:16:32.573Z,15.58
2018-12-08T06:19:01.324Z,24.65
2018-12-08T06:21:36.403Z,14.10
2018-12-08T06:24:06.073Z,13.08
2018-12-08T06:26:46.834Z,24.60
2018-12-08T06:29:16.263Z,20.65
2018-12-08T06:31:45.136Z,23.07
2018-12-08T06:34:13.857Z,20.52
2018-12-08T06:36:42.604Z,27.98
2018-12-08T06:39:11.334Z,16.57
2018-12-08T06:41:40.032Z,20.50
2018-12-08T06:44:08.841Z,14.00
2018-12-08T06:46:37.551Z,16.90
2018-12-08T06:49:06.275Z,12.90
2018-12-08T06:51:35.006Z,22.60
2018-12-08T06:54:03.750Z,20.37
2018-12-08T06:56:32.386Z,14.75
2018-12-08T06:59:01.107Z,15.40
2018-12-08T07:01:29.881Z,19.00
2018-12-08T07:03:58.603Z,22.75
2018-12-08T07:06:27.268Z,12.95
2018-12-08T07:08:55.967Z,11.77
2018-12-08T07:11:24.679Z,18.80
2018-12-08T07:13:53.385Z,23.00
2018-12-08T07:16:22.142Z,15.93
2018-12-08T07:18:50.927Z,18.00
2018-12-08T07:21:19.590Z,17.48
2018-12-08T07:23:48.294Z,18.40
2018-12-08T07:26:16.981Z,21.48
2018-12-08T07:28:46.029Z,17.77
2018-12-08T07:31:14.797Z,17.73
2018-12-08T07:33:43.564Z,17.65
2018-12-08T07:36:12.282Z,18.65
2018-12-08T07:38:40.961Z,21.68
2018-12-08T07:41:09.617Z,18.75
2018-12-08T07:43:38.269Z,19.47
2018-12-08T07:46:07.064Z,22.65
2018-12-08T07:48:35.878Z,22.80
2018-12-08T07:51:04.649Z,18.83
2018-12-08T07:53:33.381Z,17.93
2018-12-08T07:56:02.014Z,16.50
2018-12-08T07:58:30.667Z,19.70
2018-12-08T08:00:59.318Z,16.35
2018-12-08T08:03:28.034Z,18.73
2018-12-08T08:05:56.726Z,16.60
2018-12-08T08:08:26.720Z,18.27
2018-12-08T08:10:55.395Z,18.63
2018-12-08T08:13:24.127Z,14.80
2018-12-08T08:15:52.851Z,18.25
2018-12-08T08:18:21.535Z,13.35
2018-12-08T08:20:50.238Z,13.33
2018-12-08T08:23:18.906Z,17.47
2018-12-08T08:25:47.577Z,18.37
2018-12-08T08:28:16.315Z,11.67
2018-12-08T08:30:45.090Z,15.20
2018-12-08T08:33:13.807Z,16.27
2018-12-08T08:35:42.462Z,14.57
2018-12-08T08:38:11.157Z,16.67
2018-12-08T08:40:39.943Z,13.80
2018-12-08T08:43:08.647Z,16.80
2018-12-08T08:45:37.354Z,11.00
2018-12-08T08:48:06.036Z,15.53
2018-12-08T08:50:34.809Z,17.20
2018-12-08T08:53:06.198Z,10.27
2018-12-08T08:55:34.947Z,12.53
2018-12-08T08:58:03.702Z,9.47
2018-12-08T09:00:32.406Z,10.40
2018-12-08T09:03:01.043Z,16.80
2018-12-08T09:05:29.792Z,6.57
2018-12-08T09:07:58.546Z,15.70
2018-12-08T09:10:27.270Z,12.80
2018-12-08T09:12:55.907Z,13.25
2018-12-08T09:15:24.618Z,7.90
2018-12-08T09:17:53.376Z,12.17
2018-12-08T09:20:22.087Z,8.20
2018-12-08T09:22:50.777Z,8.05
2018-12-08T09:25:19.495Z,12.47
2018-12-08T09:27:49.232Z,11.63
2018-12-08T09:30:18.074Z,9.73
2018-12-08T09:32:46.790Z,8.40
2018-12-08T09:35:15.506Z,10.90
2018-12-08T09:37:44.202Z,9.60
2018-12-08T09:40:13.002Z,12.00
2018-12-08T09:42:41.663Z,9.17
2018-12-08T09:45:10.346Z,9.70
2018-12-08T09:47:38.995Z,11.05
2018-12-08T09:50:08.221Z,8.38
2018-12-08T09:52:36.930Z,7.40
2018-12-08T09:55:05.674Z,8.45
2018-12-08T09:57:35.464Z,6.92
2018-12-08T10:00:04.819Z,7.75
2018-12-08T10:02:33.670Z,11.45
2018-12-08T10:05:02.578Z,7.62
2018-12-08T10:07:32.810Z,5.60
2018-12-08T10:10:01.731Z,10.10
2018-12-08T10:12:31.482Z,9.30
2018-12-08T10:15:00.178Z,12.98
2018-12-08T10:17:28.889Z,9.78
2018-12-08T10:19:57.595Z,9.43
2018-12-08T10:25:23.352Z,8.93
2018-12-08T10:27:52.091Z,12.47
2018-12-08T10:30:20.756Z,12.10
2018-12-08T10:32:49.478Z,8.77
2018-12-08T10:35:18.255Z,8.65
2018-12-08T10:37:46.911Z,6.60
2018-12-08T10:40:15.599Z,7.42
2018-12-08T10:42:44.331Z,7.40
2018-12-08T10:45:13.206Z,6.20
2018-12-08T10:47:41.902Z,5.92
2018-12-08T10:50:11.146Z,6.13
2018-12-08T10:52:41.823Z,8.18
2018-12-08T10:55:12.480Z,6.42
2018-12-08T10:57:41.206Z,11.78
2018-12-08T11:00:14.115Z,5.72
2018-12-08T11:02:47.059Z,3.60
2018-12-08T11:05:16.671Z,10.88
2018-12-08T11:07:45.421Z,10.13
2018-12-08T11:10:14.220Z,6.90
2018-12-08T11:12:42.946Z,9.77
2018-12-08T11:15:11.711Z,8.40
2018-12-08T11:17:40.466Z,5.37
2018-12-08T11:20:09.216Z,6.27
2018-12-08T11:22:37.999Z,8.40
2018-12-08T11:25:06.772Z,9.70
2018-12-08T11:27:36.099Z,4.45
2018-12-08T11:30:05.515Z,9.17
2018-12-08T18:02:25.099Z,19.32
2018-12-08T18:04:53.822Z,27.02
2018-12-08T18:07:23.567Z,22.62
2018-12-08T18:09:52.302Z,23.30
2018-12-08T18:12:21.039Z,20.23
2018-12-08T18:14:49.753Z,24.20
2018-12-08T18:17:18.482Z,26.57
2018-12-08T18:19:47.175Z,23.57
2018-12-08T18:22:15.959Z,21.27
2018-12-08T18:24:44.738Z,23.37
2018-12-08T18:27:13.543Z,23.73
2018-12-08T18:29:42.219Z,27.07
2018-12-08T18:32:10.906Z,25.40
2018-12-08T18:34:39.646Z,23.60
2018-12-08T18:37:08.354Z,25.27
2018-12-08T18:39:37.087Z,23.37
2018-12-08T18:42:05.828Z,27.86
2018-12-08T18:44:34.609Z,31.25
2018-12-08T18:47:03.271Z,27.73
2018-12-08T18:49:32.016Z,27.57
2018-12-08T18:52:00.732Z,28.53
2018-12-08T18:54:29.452Z,22.80
2018-12-08T18:56:58.122Z,24.98
2018-12-08T18:59:26.870Z,32.17
2018-12-08T19:01:55.546Z,25.73
2018-12-08T19:04:24.245Z,36.23
2018-12-08T19:06:52.953Z,17.17
2018-12-08T19:09:21.622Z,30.17
2018-12-08T19:11:50.367Z,31.23
2018-12-08T19:14:19.062Z,30.92
2018-12-08T19:16:47.775Z,27.62
2018-12-08T19:19:16.439Z,29.10
2018-12-08T19:21:45.194Z,25.00
2018-12-08T19:24:13.931Z,33.00
2018-12-08T19:26:42.683Z,26.83
2018-12-08T19:29:12.014Z,29.57
2018-12-08T19:31:40.742Z,33.00
2018-12-08T19:34:09.442Z,27.20
2018-12-08T19:36:38.228Z,28.75
2018-12-08T19:39:07.066Z,32.20
2018-12-08T19:41:36.852Z,25.43
2018-12-08T19:44:05.543Z,24.30
2018-12-08T19:46:34.338Z,35.23
2018-12-08T19:49:03.055Z,30.20
2018-12-08T19:51:31.880Z,26.63
2018-12-08T19:54:00.638Z,27.50
2018-12-08T19:56:29.453Z,34.90
2018-12-08T19:58:58.199Z,39.45
2018-12-08T20:01:26.948Z,36.08
2018-12-08T20:03:55.694Z,33.37
2018-12-08T20:06:24.454Z,29.07
2018-12-08T20:08:53.163Z,30.55
2018-12-08T20:11:21.911Z,28.83
2018-12-08T20:13:50.879Z,32.33
2018-12-08T20:16:19.572Z,25.97
2018-12-08T20:18:48.259Z,29.30
2018-12-08T20:21:16.948Z,25.00
2018-12-08T20:23:45.746Z,24.80
2018-12-08T20:26:14.473Z,29.70
2018-12-08T20:28:43.223Z,25.40
2018-12-08T20:31:11.969Z,34.43
2018-12-08T20:33:40.727Z,20.27
2018-12-08T20:36:10.171Z,28.55
2018-12-08T20:38:38.912Z,23.17
2018-12-08T20:41:07.658Z,20.53
2018-12-08T20:43:37.479Z,24.67
2018-12-08T20:46:06.335Z,17.65
2018-12-08T20:48:35.051Z,24.65
2018-12-08T20:51:03.789Z,18.40
2018-12-08T20:53:32.551Z,14.47
2018-12-08T20:56:01.378Z,19.70
2018-12-08T20:58:30.054Z,15.23
2018-12-08T21:00:58.886Z,15.68
2018-12-08T21:03:27.674Z,21.33
2018-12-08T21:05:56.635Z,14.63
2018-12-08T21:08:25.352Z,14.80
2018-12-08T21:10:54.078Z,13.60
2018-12-08T21:13:22.857Z,13.23
2018-12-08T21:15:51.603Z,11.53
2018-12-08T21:18:20.353Z,13.20
2018-12-08T21:20:49.899Z,12.50
2018-12-08T21:23:18.579Z,17.17
2018-12-08T21:25:47.323Z,10.80
2018-12-08T21:28:15.978Z,13.13
2018-12-08T21:30:44.755Z,9.80
2018-12-08T21:33:13.494Z,11.93
2018-12-08T21:35:42.241Z,8.68
2018-12-08T21:38:10.940Z,10.77
2018-12-08T21:40:39.646Z,4.95
2018-12-08T21:43:09.227Z,7.47
2018-12-08T21:45:38.003Z,8.67
2018-12-08T21:48:06.754Z,8.80
2018-12-08T21:50:35.538Z,5.60
2018-12-08T21:53:04.205Z,7.10
2018-12-08T21:55:32.887Z,3.80
2018-12-08T21:58:01.640Z,4.17
2018-12-08T22:00:30.398Z,2.20
2018-12-08T22:02:59.144Z,1.60
2018-12-08T22:05:28.695Z,3.52
2018-12-08T22:07:57.435Z,3.80
2018-12-08T22:10:26.180Z,3.50
2018-12-08T22:12:54.911Z,4.00
2018-12-08T22:15:23.666Z,3.00
2018-12-08T22:17:52.379Z,2.47
2018-12-08T22:20:21.190Z,2.15
2018-12-08T22:22:49.969Z,1.80
2018-12-08T22:25:18.763Z,1.67
2018-12-08T22:27:48.128Z,3.67
2018-12-08T22:30:16.886Z,2.10
2018-12-08T22:32:45.655Z,1.60
2018-12-08T22:35:14.447Z,3.40
2018-12-08T22:37:43.119Z,3.97
2018-12-08T22:40:11.972Z,1.80
2018-12-08T22:42:40.719Z,1.50
2018-12-08T22:45:09.555Z,2.70
2018-12-08T22:47:38.274Z,3.37
2018-12-08T22:50:08.051Z,3.30
2018-12-08T22:52:36.721Z,2.70
2018-12-08T22:55:05.480Z,3.70
2018-12-08T22:57:34.310Z,2.35
2018-12-08T23:00:03.216Z,2.70
2018-12-08T23:02:31.962Z,3.20
2018-12-08T23:05:00.745Z,2.67
2018-12-08T23:07:29.491Z,3.10
2018-12-08T23:09:58.167Z,4.03
2018-12-08T23:12:27.131Z,5.92
2018-12-08T23:14:55.871Z,4.67
2018-12-08T23:17:24.619Z,7.27
2018-12-08T23:19:53.384Z,5.05
2018-12-08T23:22:22.143Z,2.80
2018-12-08T23:24:50.830Z,3.00
2018-12-08T23:27:19.588Z,4.73
2018-12-08T23:29:48.295Z,5.20
2018-12-08T23:32:17.019Z,4.87
2018-12-08T23:34:46.395Z,4.15
2018-12-08T23:37:16.187Z,6.87
2018-12-08T23:39:44.899Z,5.57
2018-12-08T23:42:13.643Z,4.10
2018-12-08T23:44:42.391Z,5.70
2018-12-08T23:47:11.173Z,7.47
2018-12-08T23:49:39.940Z,6.75
2018-12-08T23:52:08.707Z,5.95
2018-12-08T23:54:37.364Z,8.78
2018-12-08T23:57:06.143Z,7.35
2018-12-08T23:59:34.802Z,5.80
